createdAt,value
2023-03-26T00:01:21.444Z,97019.16
2023-03-26T00:03:53.721Z,97013.38
2023-03-26T00:06:26.556Z,97009.53
2023-03-26T00:08:57.273Z,97013.72
2023-03-26T00:11:27.633Z,97027.72
2023-03-26T00:13:57.882Z,97026.91
2023-03-26T00:16:28.070Z,97026.91
2023-03-26T00:18:55.516Z,97032.72
2023-03-26T00:21:28.413Z,97037.00
2023-03-26T00:24:01.157Z,97038.53
2023-03-26T00:26:29.849Z,97037.00
2023-03-26T00:28:56.422Z,97039.31
2023-03-26T00:31:23.389Z,97041.59
2023-03-26T00:33:55.745Z,97044.75
2023-03-26T00:36:25.878Z,97043.97
2023-03-26T00:38:53.980Z,97044.75
2023-03-26T00:41:26.448Z,97038.16
2023-03-26T00:43:56.639Z,97047.06
2023-03-26T00:46:24.310Z,97037.00
2023-03-26T00:48:50.932Z,97047.97
2023-03-26T00:51:20.812Z,97038.22
2023-03-26T00:53:48.881Z,97044.06
2023-03-26T00:56:16.066Z,97044.16
2023-03-26T00:58:43.382Z,97044.16
2023-03-26T01:01:16.580Z,97056.66
2023-03-26T01:04:00.841Z,97052.41
2023-03-26T01:06:36.041Z,97051.34
2023-03-26T01:09:11.365Z,97041.50
2023-03-26T01:11:37.940Z,97040.81
2023-03-26T01:14:10.136Z,97042.78
2023-03-26T01:16:47.540Z,97032.34
2023-03-26T01:19:36.628Z,97027.97
2023-03-26T01:22:03.160Z,97026.88
2023-03-26T01:24:29.717Z,97030.91
2023-03-26T01:27:21.023Z,97029.03
2023-03-26T01:29:55.818Z,97024.31
2023-03-26T01:32:33.247Z,97020.50
2023-03-26T01:35:09.143Z,97025.19
2023-03-26T01:37:58.866Z,97024.41
2023-03-26T01:40:42.805Z,97015.06
2023-03-26T01:43:33.861Z,97015.06
2023-03-26T01:46:03.928Z,97012.41
2023-03-26T01:48:33.634Z,97010.78
2023-03-26T01:51:00.312Z,97012.41
2023-03-26T01:53:27.448Z,97003.47
2023-03-26T01:56:17.225Z,97011.97
2023-03-26T01:58:53.096Z,97003.47
2023-03-26T02:01:30.462Z,97005.78
2023-03-26T02:04:08.904Z,97011.94
2023-03-26T02:06:46.411Z,97004.16
2023-03-26T02:09:18.352Z,96994.06
2023-03-26T02:11:45.414Z,96989.81
2023-03-26T02:14:15.106Z,96986.31
2023-03-26T02:16:41.774Z,96987.47
2023-03-26T02:19:15.858Z,96985.53
2023-03-26T02:21:42.892Z,96983.19
2023-03-26T02:24:09.539Z,96979.25
2023-03-26T02:26:37.816Z,96975.34
2023-03-26T02:29:04.917Z,96980.56
2023-03-26T02:31:31.579Z,96977.06
2023-03-26T02:33:58.562Z,96970.09
2023-03-26T02:36:27.702Z,96964.72
2023-03-26T02:38:55.924Z,96953.88
2023-03-26T02:41:22.552Z,96950.69
2023-03-26T02:43:49.195Z,96940.66
2023-03-26T02:46:15.910Z,96946.13
2023-03-26T02:48:42.692Z,96930.59
2023-03-26T02:51:09.261Z,96945.41
2023-03-26T02:53:37.645Z,96945.50
2023-03-26T02:56:04.713Z,96945.56
2023-03-26T02:58:31.322Z,96938.88
2023-03-26T03:00:57.962Z,96938.22
2023-03-26T03:03:26.424Z,96933.06
2023-03-26T03:05:57.560Z,96933.88
2023-03-26T03:08:26.825Z,96930.78
2023-03-26T03:11:11.641Z,96920.69
2023-03-26T03:13:38.271Z,96918.75
2023-03-26T03:16:05.476Z,96919.09
2023-03-26T03:18:35.103Z,96908.28
2023-03-26T03:21:03.120Z,96896.59
2023-03-26T03:23:29.779Z,96892.38
2023-03-26T03:25:58.561Z,96892.44
2023-03-26T03:28:25.836Z,96892.44
2023-03-26T03:30:57.687Z,96897.47
2023-03-26T03:33:24.469Z,96890.50
2023-03-26T03:35:51.386Z,96889.31
2023-03-26T03:38:17.994Z,96881.91
2023-03-26T03:40:44.786Z,96878.72
2023-03-26T03:43:11.391Z,96879.19
2023-03-26T03:45:37.926Z,96880.38
2023-03-26T03:48:04.874Z,96877.31
2023-03-26T03:50:33.713Z,96873.00
2023-03-26T03:53:02.203Z,96877.38
2023-03-26T03:55:28.798Z,96883.94
2023-03-26T03:57:56.344Z,96877.38
2023-03-26T04:00:22.925Z,96874.41
2023-03-26T04:02:49.873Z,96878.31
2023-03-26T04:05:16.559Z,96876.34
2023-03-26T04:07:44.066Z,96868.25
2023-03-26T04:10:15.604Z,96864.00
2023-03-26T04:12:42.175Z,96857.41
2023-03-26T04:15:08.963Z,96864.78
2023-03-26T04:17:42.959Z,96869.38
2023-03-26T04:20:16.059Z,96865.06
2023-03-26T04:22:44.103Z,96873.63
2023-03-26T04:25:12.733Z,96860.81
2023-03-26T04:27:41.799Z,96867.44
2023-03-26T04:30:14.673Z,96861.25
2023-03-26T04:32:43.097Z,96862.75
2023-03-26T04:35:14.630Z,96854.66
2023-03-26T04:37:42.291Z,96861.63
2023-03-26T04:40:15.292Z,96853.56
2023-03-26T04:42:46.302Z,96855.84
2023-03-26T04:45:15.374Z,96847.38
2023-03-26T04:47:42.108Z,96850.47
2023-03-26T04:50:11.360Z,96848.94
2023-03-26T04:52:38.436Z,96846.63
2023-03-26T04:55:13.959Z,96847.38
2023-03-26T04:57:46.578Z,96830.34
2023-03-26T05:00:18.798Z,96837.66
2023-03-26T05:02:46.089Z,96828.78
2023-03-26T05:05:12.706Z,96827.28
2023-03-26T05:07:39.366Z,96821.41
2023-03-26T05:10:07.044Z,96825.25
2023-03-26T05:12:33.696Z,96824.81
2023-03-26T05:15:00.470Z,96815.91
2023-03-26T05:17:30.998Z,96805.03
2023-03-26T05:19:57.913Z,96804.63
2023-03-26T05:22:24.545Z,96794.50
2023-03-26T05:24:51.587Z,96789.06
2023-03-26T05:27:20.368Z,96790.50
2023-03-26T05:29:47.031Z,96786.63
2023-03-26T05:32:13.567Z,96778.53
2023-03-26T05:34:40.890Z,96775.47
2023-03-26T05:37:09.302Z,96786.97
2023-03-26T05:39:36.313Z,96768.03
2023-03-26T05:42:03.771Z,96763.22
2023-03-26T05:44:31.702Z,96765.25
2023-03-26T05:46:58.259Z,96741.81
2023-03-26T05:49:24.971Z,96740.72
2023-03-26T05:51:53.187Z,96723.53
2023-03-26T05:54:21.223Z,96733.16
2023-03-26T05:56:47.979Z,96739.81
2023-03-26T05:59:15.515Z,96741.66
2023-03-26T06:01:44.882Z,96741.66
2023-03-26T06:04:16.239Z,96735.75
2023-03-26T06:06:43.107Z,96730.44
2023-03-26T06:09:09.749Z,96736.50
2023-03-26T06:11:36.484Z,96729.13
2023-03-26T06:14:03.288Z,96727.16
2023-03-26T06:16:29.930Z,96723.13
2023-03-26T06:18:57.848Z,96720.81
2023-03-26T06:21:28.847Z,96718.44
2023-03-26T06:23:56.455Z,96717.66
2023-03-26T06:26:23.034Z,96715.97
2023-03-26T06:28:49.960Z,96713.50
2023-03-26T06:31:17.669Z,96703.66
2023-03-26T06:33:44.234Z,96707.00
2023-03-26T06:36:10.962Z,96708.50
2023-03-26T06:38:37.661Z,96712.34
2023-03-26T06:41:06.417Z,96713.53
2023-03-26T06:43:33.996Z,96708.19
2023-03-26T06:46:04.447Z,96705.94
2023-03-26T06:48:31.428Z,96702.72
2023-03-26T06:50:58.238Z,96695.03
2023-03-26T06:53:24.975Z,96693.22
2023-03-26T06:55:53.883Z,96691.66
2023-03-26T06:58:20.643Z,96694.91
2023-03-26T07:00:47.320Z,96693.44
2023-03-26T07:03:13.907Z,96701.28
2023-03-26T07:05:43.661Z,96687.31
2023-03-26T07:08:10.512Z,96684.09
2023-03-26T07:10:37.053Z,96687.66
2023-03-26T07:13:03.583Z,96682.34
2023-03-26T07:15:30.443Z,96681.88
2023-03-26T07:17:57.114Z,96670.75
2023-03-26T07:20:24.391Z,96665.19
2023-03-26T07:22:52.010Z,96655.16
2023-03-26T07:25:19.392Z,96659.19
2023-03-26T07:27:46.077Z,96649.91
2023-03-26T07:30:16.336Z,96645.09
2023-03-26T07:32:49.154Z,96642.84
2023-03-26T07:35:33.988Z,96634.88
2023-03-26T07:38:12.760Z,96627.50
2023-03-26T07:40:50.437Z,96623.34
2023-03-26T07:43:30.589Z,96612.72
2023-03-26T07:45:57.703Z,96610.19
2023-03-26T07:48:27.497Z,96604.66
2023-03-26T07:50:55.530Z,96600.47
2023-03-26T07:53:23.136Z,96592.66
2023-03-26T07:55:58.034Z,96597.06
2023-03-26T07:58:37.704Z,96592.50
2023-03-26T08:01:23.315Z,96593.28
2023-03-26T08:04:24.575Z,96593.09
2023-03-26T08:07:04.966Z,96595.75
2023-03-26T08:09:58.901Z,96588.31
2023-03-26T08:12:48.323Z,96598.25
2023-03-26T08:15:33.875Z,96588.34
2023-03-26T08:18:22.016Z,96588.84
2023-03-26T08:21:14.478Z,96590.41
2023-03-26T08:24:22.990Z,96575.56
2023-03-26T08:27:19.452Z,96568.41
2023-03-26T08:30:02.375Z,96564.16
2023-03-26T08:32:29.272Z,96556.13
2023-03-26T08:34:57.794Z,96551.69
2023-03-26T08:37:24.794Z,96565.34
2023-03-26T08:39:51.420Z,96559.03
2023-03-26T08:42:45.997Z,96556.66
2023-03-26T08:45:38.899Z,96546.94
2023-03-26T08:48:26.828Z,96530.03
2023-03-26T08:51:05.789Z,96526.16
2023-03-26T08:53:48.104Z,96539.66
2023-03-26T08:56:20.651Z,96532.53
2023-03-26T08:58:59.178Z,96531.41
2023-03-26T09:02:02.307Z,96514.78
2023-03-26T09:04:42.692Z,96516.84
2023-03-26T09:07:33.906Z,96504.06
2023-03-26T09:10:16.053Z,96499.19
2023-03-26T09:15:47.069Z,96511.53
2023-03-26T09:18:51.805Z,96496.72
2023-03-26T09:21:37.031Z,96491.84
2023-03-26T09:24:09.704Z,96482.50
2023-03-26T09:26:53.146Z,96483.53
2023-03-26T09:29:51.843Z,96479.34
2023-03-26T09:32:56.227Z,96479.50
2023-03-26T09:35:50.075Z,96477.63
2023-03-26T09:38:33.552Z,96479.75
2023-03-26T09:41:27.883Z,96491.03
2023-03-26T09:44:20.327Z,96497.44
2023-03-26T09:47:21.791Z,96496.91
2023-03-26T09:50:19.719Z,96494.44
2023-03-26T09:53:37.464Z,96504.31
2023-03-26T09:56:26.639Z,96489.59
2023-03-26T09:59:07.024Z,96492.91
2023-03-26T10:01:58.600Z,96502.25
2023-03-26T10:04:46.044Z,96496.41
2023-03-26T10:07:30.242Z,96494.31
2023-03-26T10:10:25.988Z,96499.34
2023-03-26T10:13:15.045Z,96498.50
2023-03-26T10:16:33.218Z,96502.06
2023-03-26T10:19:20.388Z,96503.13
2023-03-26T10:22:02.086Z,96509.91
2023-03-26T10:24:48.576Z,96501.38
2023-03-26T10:27:49.812Z,96511.22
2023-03-26T10:30:35.222Z,96513.38
2023-03-26T10:33:12.658Z,96504.59
2023-03-26T10:35:56.665Z,96509.34
2023-03-26T10:38:54.792Z,96508.91
2023-03-26T10:41:51.476Z,96507.03
2023-03-26T10:44:54.818Z,96510.88
2023-03-26T10:47:55.036Z,96500.31
2023-03-26T10:50:35.974Z,96499.66
2023-03-26T10:53:25.941Z,96491.13
2023-03-26T10:56:00.337Z,96498.97
2023-03-26T10:58:29.590Z,96497.03
2023-03-26T11:01:28.316Z,96497.44
2023-03-26T11:03:56.678Z,96492.97
2023-03-26T11:06:56.532Z,96486.09
2023-03-26T11:09:39.859Z,96471.88
2023-03-26T11:12:27.281Z,96474.41
2023-03-26T11:15:04.103Z,96472.88
2023-03-26T11:17:57.018Z,96474.09
2023-03-26T11:20:44.047Z,96451.56
2023-03-26T11:23:21.570Z,96450.06
2023-03-26T11:26:03.301Z,96446.69
2023-03-26T11:29:03.592Z,96450.47
2023-03-26T11:31:55.385Z,96446.91
2023-03-26T11:34:29.685Z,96438.47
2023-03-26T11:36:58.961Z,96419.91
2023-03-26T11:39:33.167Z,96424.72
2023-03-26T11:42:08.104Z,96416.41
2023-03-26T11:44:39.507Z,96413.81
2023-03-26T11:47:12.450Z,96407.59
2023-03-26T11:49:39.916Z,96401.25
2023-03-26T11:52:07.683Z,96393.66
2023-03-26T11:54:34.211Z,96386.38
2023-03-26T11:57:07.252Z,96381.06
2023-03-26T11:59:45.306Z,96378.22
2023-03-26T12:02:25.407Z,96377.00
2023-03-26T12:05:02.845Z,96352.97
2023-03-26T12:07:34.551Z,96358.19
2023-03-26T12:10:18.145Z,96352.84
2023-03-26T12:12:47.612Z,96350.25
2023-03-26T12:15:16.311Z,96351.84
2023-03-26T12:17:43.281Z,96368.47
2023-03-26T12:20:33.115Z,96382.38
2023-03-26T12:23:02.355Z,96376.69
2023-03-26T12:25:34.921Z,96382.25
2023-03-26T12:28:14.064Z,96363.31
2023-03-26T12:31:01.432Z,96359.88
2023-03-26T12:33:30.273Z,96353.66
2023-03-26T12:36:01.043Z,96358.06
2023-03-26T12:38:33.991Z,96360.53
2023-03-26T12:41:08.115Z,96353.75
2023-03-26T12:44:55.973Z,96348.72
2023-03-26T12:47:54.619Z,96334.03
2023-03-26T12:49:19.673Z,96321.03
2023-03-26T12:52:07.647Z,96316.78
2023-03-26T12:54:48.507Z,96318.75
2023-03-26T12:57:20.532Z,96310.47
2023-03-26T13:00:37.776Z,96294.88
2023-03-26T13:03:38.048Z,96291.03
2023-03-26T13:07:01.716Z,96284.16
2023-03-26T13:09:56.090Z,96294.47
2023-03-26T13:12:45.580Z,96296.41
2023-03-26T13:15:22.698Z,96296.81
2023-03-26T13:18:27.386Z,96286.88
2023-03-26T13:21:12.530Z,96276.06
2023-03-26T13:23:53.665Z,96271.63
2023-03-26T13:26:58.644Z,96261.84
2023-03-26T13:29:25.791Z,96258.59
2023-03-26T13:32:25.895Z,96264.53
2023-03-26T13:35:07.778Z,96246.59
2023-03-26T13:37:52.357Z,96241.03
2023-03-26T13:40:45.026Z,96228.25
2023-03-26T13:43:33.311Z,96216.41
2023-03-26T13:46:35.081Z,96228.75
2023-03-26T13:49:13.716Z,96224.31
2023-03-26T13:51:53.778Z,96215.34
2023-03-26T13:54:31.365Z,96214.25
2023-03-26T13:57:12.623Z,96190.78
2023-03-26T13:59:56.928Z,96183.16
2023-03-26T14:03:06.661Z,96180.34
2023-03-26T14:05:57.340Z,96173.88
2023-03-26T14:08:36.870Z,96178.72
2023-03-26T14:11:16.616Z,96165.59
2023-03-26T14:13:53.082Z,96165.00
2023-03-26T14:16:29.453Z,96159.19
2023-03-26T14:19:22.562Z,96168.53
2023-03-26T14:21:54.976Z,96158.25
2023-03-26T14:24:58.960Z,96161.09
2023-03-26T14:27:44.468Z,96148.63
2023-03-26T14:30:11.487Z,96155.63
2023-03-26T14:32:53.167Z,96145.47
2023-03-26T14:35:57.382Z,96139.28
2023-03-26T14:39:09.590Z,96140.81
2023-03-26T14:41:48.065Z,96134.41
2023-03-26T14:44:48.901Z,96143.09
2023-03-26T14:47:16.109Z,96141.41
2023-03-26T14:50:04.392Z,96129.84
2023-03-26T14:52:46.681Z,96144.94
2023-03-26T14:55:23.939Z,96126.53
2023-03-26T14:58:02.230Z,96125.88
2023-03-26T15:01:04.248Z,96124.66
2023-03-26T15:03:52.837Z,96138.34
2023-03-26T15:06:51.297Z,96131.34
2023-03-26T15:09:56.033Z,96125.28
2023-03-26T15:12:46.655Z,96129.56
2023-03-26T15:15:34.564Z,96125.63
2023-03-26T15:18:33.450Z,96130.19
2023-03-26T15:21:28.065Z,96146.81
2023-03-26T15:24:03.681Z,96142.38
2023-03-26T15:27:27.507Z,96145.13
2023-03-26T15:30:12.650Z,96142.53
2023-03-26T15:33:05.274Z,96144.06
2023-03-26T15:35:56.974Z,96147.25
2023-03-26T15:38:51.728Z,96141.47
2023-03-26T15:41:30.308Z,96137.34
2023-03-26T15:46:38.386Z,96145.72
2023-03-26T15:49:45.630Z,96140.38
2023-03-26T15:52:22.280Z,96145.28
2023-03-26T15:55:22.660Z,96146.97
2023-03-26T15:58:19.679Z,96147.56
2023-03-26T16:01:21.236Z,96132.63
2023-03-26T16:03:59.709Z,96129.56
2023-03-26T16:06:41.546Z,96139.31
2023-03-26T16:09:45.711Z,96140.22
2023-03-26T16:12:12.183Z,96133.25
2023-03-26T16:14:47.369Z,96135.06
2023-03-26T16:17:20.783Z,96130.78
2023-03-26T16:20:09.703Z,96125.00
2023-03-26T16:22:44.814Z,96131.88
2023-03-26T16:25:27.268Z,96129.91
2023-03-26T16:28:11.007Z,96133.72
2023-03-26T16:30:38.405Z,96130.81
2023-03-26T16:33:18.890Z,96123.31
2023-03-26T16:36:07.384Z,96119.53
2023-03-26T16:39:13.605Z,96135.97
2023-03-26T16:41:40.027Z,96136.84
2023-03-26T16:44:13.896Z,96137.78
2023-03-26T16:46:58.990Z,96141.66
2023-03-26T16:49:41.605Z,96131.91
2023-03-26T16:52:32.099Z,96130.38
2023-03-26T16:55:22.990Z,96115.75
2023-03-26T16:58:09.971Z,96115.44
2023-03-26T17:00:48.179Z,96105.53
2023-03-26T17:03:27.385Z,96103.75
2023-03-26T17:05:57.093Z,96100.28
2023-03-26T17:08:42.097Z,96107.69
2023-03-26T17:11:25.894Z,96111.44
2023-03-26T17:14:14.316Z,96110.25
2023-03-26T17:17:26.389Z,96109.91
2023-03-26T17:20:17.319Z,96112.63
2023-03-26T17:22:56.973Z,96114.72
2023-03-26T17:25:55.886Z,96120.84
2023-03-26T17:28:45.036Z,96118.47
2023-03-26T17:31:23.815Z,96121.78
2023-03-26T17:33:50.795Z,96130.31
2023-03-26T17:36:21.447Z,96131.53
2023-03-26T17:38:47.923Z,96129.94
2023-03-26T17:41:55.430Z,96140.56
2023-03-26T17:44:58.437Z,96149.28
2023-03-26T17:48:02.556Z,96142.41
2023-03-26T17:50:42.151Z,96139.28
2023-03-26T17:53:34.240Z,96128.41
2023-03-26T17:56:05.755Z,96123.13
2023-03-26T17:58:47.987Z,96143.41
2023-03-26T18:01:42.305Z,96147.34
2023-03-26T18:04:19.780Z,96160.69
2023-03-26T18:07:27.895Z,96158.53
2023-03-26T18:10:33.157Z,96157.88
2023-03-26T18:13:19.469Z,96164.25
2023-03-26T18:15:52.777Z,96156.34
2023-03-26T18:18:34.677Z,96153.53
2023-03-26T18:21:04.743Z,96157.63
2023-03-26T18:23:44.485Z,96164.84
2023-03-26T18:26:19.261Z,96168.00
2023-03-26T18:28:53.899Z,96171.31
2023-03-26T18:31:24.947Z,96184.13
2023-03-26T18:33:57.179Z,96201.50
2023-03-26T18:36:26.623Z,96194.28
2023-03-26T18:38:58.763Z,96205.41
2023-03-26T18:41:37.420Z,96196.75
2023-03-26T18:44:06.221Z,96199.94
2023-03-26T18:46:34.011Z,96208.00
2023-03-26T18:49:03.076Z,96212.91
2023-03-26T18:51:31.833Z,96207.53
2023-03-26T18:54:01.427Z,96201.66
2023-03-26T18:56:40.115Z,96206.88
2023-03-26T18:59:20.606Z,96208.72
2023-03-26T19:01:48.749Z,96212.94
2023-03-26T19:04:16.288Z,96212.25
2023-03-26T19:06:44.558Z,96221.94
2023-03-26T19:09:28.073Z,96222.22
2023-03-26T19:12:05.838Z,96225.28
2023-03-26T19:14:37.039Z,96235.03
2023-03-26T19:17:07.058Z,96235.25
2023-03-26T19:19:37.486Z,96245.78
2023-03-26T19:22:05.968Z,96244.94
2023-03-26T19:24:33.414Z,96238.81
2023-03-26T19:27:00.022Z,96251.22
2023-03-26T19:29:33.996Z,96258.56
2023-03-26T19:32:17.884Z,96267.06
2023-03-26T19:34:46.504Z,96255.84
2023-03-26T19:37:32.547Z,96262.56
2023-03-26T19:40:20.519Z,96248.19
2023-03-26T19:42:48.926Z,96245.28
2023-03-26T19:45:20.810Z,96241.22
2023-03-26T19:47:59.988Z,96236.09
2023-03-26T19:50:36.639Z,96227.94
2023-03-26T19:53:17.911Z,96240.44
2023-03-26T19:56:15.448Z,96230.31
2023-03-26T19:58:43.179Z,96237.44
2023-03-26T20:01:19.263Z,96236.44
2023-03-26T20:03:48.581Z,96235.53
2023-03-26T20:06:17.805Z,96237.63
2023-03-26T20:08:44.616Z,96235.59
2023-03-26T20:11:18.959Z,96241.53
2023-03-26T20:13:45.545Z,96244.09
2023-03-26T20:16:33.769Z,96240.53
2023-03-26T20:19:04.473Z,96254.97
2023-03-26T20:21:32.715Z,96243.59
2023-03-26T20:23:59.311Z,96255.09
2023-03-26T20:26:25.946Z,96250.03
2023-03-26T20:28:53.867Z,96253.47
2023-03-26T20:31:25.360Z,96259.75
2023-03-26T20:33:54.080Z,96259.56
2023-03-26T20:36:32.984Z,96257.63
2023-03-26T20:39:06.148Z,96259.06
2023-03-26T20:41:33.834Z,96263.41
2023-03-26T20:44:01.000Z,96254.22
2023-03-26T20:46:31.267Z,96256.94
2023-03-26T20:48:59.750Z,96260.78
2023-03-26T20:51:30.464Z,96253.78
2023-03-26T20:53:56.959Z,96247.56
2023-03-26T20:56:23.612Z,96246.81
2023-03-26T20:59:03.452Z,96246.13
2023-03-26T21:01:35.033Z,96239.06
2023-03-26T21:04:04.460Z,96243.31
2023-03-26T21:06:31.558Z,96239.06
2023-03-26T21:08:58.384Z,96244.78
2023-03-26T21:11:43.011Z,96245.22
2023-03-26T21:14:18.446Z,96240.00
2023-03-26T21:16:45.507Z,96248.13
2023-03-26T21:19:12.463Z,96253.63
2023-03-26T21:21:52.856Z,96263.13
2023-03-26T21:24:49.539Z,96252.75
2023-03-26T21:27:22.972Z,96255.16
2023-03-26T21:29:49.667Z,96256.69
2023-03-26T21:32:16.427Z,96251.25
2023-03-26T21:34:55.614Z,96252.09
2023-03-26T21:37:25.001Z,96255.41
2023-03-26T21:39:53.267Z,96258.53
2023-03-26T21:42:20.015Z,96258.22
2023-03-26T21:44:47.000Z,96253.97
2023-03-26T21:47:14.161Z,96261.94
2023-03-26T21:49:41.407Z,96262.63
2023-03-26T21:52:14.644Z,96259.47
2023-03-26T21:54:43.329Z,96260.31
2023-03-26T21:57:34.745Z,96257.25
2023-03-26T22:00:15.394Z,96264.47
2023-03-26T22:03:03.306Z,96263.94
2023-03-26T22:05:42.844Z,96268.59
2023-03-26T22:08:24.713Z,96261.31
2023-03-26T22:10:51.356Z,96264.69
2023-03-26T22:13:17.871Z,96257.97
2023-03-26T22:15:44.979Z,96266.13
2023-03-26T22:18:11.965Z,96259.50
2023-03-26T22:20:38.626Z,96259.78
2023-03-26T22:23:06.823Z,96258.72
2023-03-26T22:25:33.368Z,96266.69
2023-03-26T22:27:59.950Z,96257.28
2023-03-26T22:30:27.368Z,96258.94
2023-03-26T22:32:54.102Z,96250.72
2023-03-26T22:35:20.718Z,96268.97
2023-03-26T22:37:47.545Z,96268.28
2023-03-26T22:40:14.110Z,96275.59
2023-03-26T22:42:41.649Z,96268.50
2023-03-26T22:45:09.540Z,96271.03
2023-03-26T22:47:36.252Z,96284.38
2023-03-26T22:50:04.424Z,96271.75
2023-03-26T22:52:31.504Z,96275.94
2023-03-26T22:54:58.155Z,96275.94
2023-03-26T22:57:24.745Z,96265.34
2023-03-26T22:59:52.210Z,96265.78
2023-03-26T23:02:19.429Z,96263.25
2023-03-26T23:04:47.882Z,96284.09
2023-03-26T23:07:14.876Z,96273.66
2023-03-26T23:09:41.730Z,96263.41
2023-03-26T23:12:08.708Z,96260.00
2023-03-26T23:14:36.351Z,96267.94
2023-03-26T23:17:02.985Z,96264.38
2023-03-26T23:19:30.195Z,96271.00
2023-03-26T23:21:57.546Z,96266.97
2023-03-26T23:24:26.640Z,96260.41
2023-03-26T23:26:53.350Z,96270.38
2023-03-26T23:29:20.316Z,96282.22
2023-03-26T23:31:47.382Z,96278.81
2023-03-26T23:34:14.325Z,96276.50
2023-03-26T23:36:41.983Z,96279.31
2023-03-26T23:39:08.902Z,96276.94
2023-03-26T23:41:36.885Z,96282.53
2023-03-26T23:44:03.981Z,96276.59
2023-03-26T23:46:33.169Z,96268.56
2023-03-26T23:49:02.562Z,96270.38
2023-03-26T23:51:30.430Z,96272.00
2023-03-26T23:53:57.190Z,96263.22
2023-03-26T23:56:23.990Z,96266.56
2023-03-26T23:58:50.625Z,96263.28
